sensor_id;sensor_type;location;lat;lon;timestamp;P1;P2;P0
74419;PMS5003;62855;50.718;-2.460;2024-03-07T00:01:07;5.45;5.87;
74419;PMS5003;62855;50.718;-2.460;2024-03-07T00:04:05;6.35;6.84;
74419;PMS5003;62855;50.718;-2.460;2024-03-07T00:07:06;6.35;6.84;
74419;PMS5003;62855;50.718;-2.460;2024-03-07T00:10:06;6.35;6.84;
74419;PMS5003;62855;50.718;-2.460;2024-03-07T00:13:05;7.26;7.82;
74419;PMS5003;62855;50.718;-2.460;2024-03-07T00:16:06;7.26;7.82;
74419;PMS5003;62855;50.718;-2.460;2024-03-07T00:19:06;6.35;5.87;
74419;PMS5003;62855;50.718;-2.460;2024-03-07T00:22:05;6.35;6.84;
74419;PMS5003;62855;50.718;-2.460;2024-03-07T00:25:07;5.45;5.87;
74419;PMS5003;62855;50.718;-2.460;2024-03-07T00:28:05;5.45;5.87;
74419;PMS5003;62855;50.718;-2.460;2024-03-07T00:31:05;5.45;5.87;
74419;PMS5003;62855;50.718;-2.460;2024-03-07T00:34:05;6.35;5.87;
74419;PMS5003;62855;50.718;-2.460;2024-03-07T00:37:07;6.35;5.87;
74419;PMS5003;62855;50.718;-2.460;2024-03-07T00:40:06;5.45;5.87;
74419;PMS5003;62855;50.718;-2.460;2024-03-07T00:43:05;5.45;5.87;
74419;PMS5003;62855;50.718;-2.460;2024-03-07T00:46:06;6.35;5.87;
74419;PMS5003;62855;50.718;-2.460;2024-03-07T00:49:05;6.35;5.87;
74419;PMS5003;62855;50.718;-2.460;2024-03-07T00:52:05;7.26;7.82;
74419;PMS5003;62855;50.718;-2.460;2024-03-07T00:55:05;7.26;7.82;
74419;PMS5003;62855;50.718;-2.460;2024-03-07T00:58:06;7.26;6.84;
74419;PMS5003;62855;50.718;-2.460;2024-03-07T01:01:06;7.26;6.84;
74419;PMS5003;62855;50.718;-2.460;2024-03-07T01:04:05;7.26;6.84;
74419;PMS5003;62855;50.718;-2.460;2024-03-07T01:07:05;7.26;6.84;
74419;PMS5003;62855;50.718;-2.460;2024-03-07T01:10:05;7.26;6.84;
74419;PMS5003;62855;50.718;-2.460;2024-03-07T01:13:06;7.26;6.84;
74419;PMS5003;62855;50.718;-2.460;2024-03-07T01:16:06;9.08;7.82;
74419;PMS5003;62855;50.718;-2.460;2024-03-07T01:19:06;8.17;7.82;
74419;PMS5003;62855;50.718;-2.460;2024-03-07T01:22:06;9.08;7.82;
74419;PMS5003;62855;50.718;-2.460;2024-03-07T01:25:06;8.17;6.84;
74419;PMS5003;62855;50.718;-2.460;2024-03-07T01:28:06;8.17;6.84;
74419;PMS5003;62855;50.718;-2.460;2024-03-07T01:31:05;8.17;6.84;
74419;PMS5003;62855;50.718;-2.460;2024-03-07T01:34:05;7.26;5.87;
74419;PMS5003;62855;50.718;-2.460;2024-03-07T01:37:05;7.26;6.84;
74419;PMS5003;62855;50.718;-2.460;2024-03-07T01:40:05;8.17;6.84;
74419;PMS5003;62855;50.718;-2.460;2024-03-07T01:43:06;7.26;6.84;
74419;PMS5003;62855;50.718;-2.460;2024-03-07T01:46:05;6.35;5.87;
74419;PMS5003;62855;50.718;-2.460;2024-03-07T01:49:06;6.35;5.87;
74419;PMS5003;62855;50.718;-2.460;2024-03-07T01:52:06;5.45;4.89;
74419;PMS5003;62855;50.718;-2.460;2024-03-07T01:55:07;6.35;5.87;
74419;PMS5003;62855;50.718;-2.460;2024-03-07T01:58:05;7.26;6.84;
74419;PMS5003;62855;50.718;-2.460;2024-03-07T02:01:07;7.26;6.84;
74419;PMS5003;62855;50.718;-2.460;2024-03-07T02:04:06;7.26;6.84;
74419;PMS5003;62855;50.718;-2.460;2024-03-07T02:07:05;7.26;6.84;
74419;PMS5003;62855;50.718;-2.460;2024-03-07T02:10:05;7.26;5.87;
74419;PMS5003;62855;50.718;-2.460;2024-03-07T02:13:06;6.35;5.87;
74419;PMS5003;62855;50.718;-2.460;2024-03-07T02:16:06;7.26;5.87;
74419;PMS5003;62855;50.718;-2.460;2024-03-07T02:19:05;9.08;7.82;
74419;PMS5003;62855;50.718;-2.460;2024-03-07T02:22:06;9.08;7.82;
74419;PMS5003;62855;50.718;-2.460;2024-03-07T02:25:06;8.17;6.84;
74419;PMS5003;62855;50.718;-2.460;2024-03-07T02:28:06;8.17;6.84;
74419;PMS5003;62855;50.718;-2.460;2024-03-07T02:34:05;13.61;10.76;
74419;PMS5003;62855;50.718;-2.460;2024-03-07T02:37:05;11.80;8.80;
74419;PMS5003;62855;50.718;-2.460;2024-03-07T02:40:06;15.43;10.76;
74419;PMS5003;62855;50.718;-2.460;2024-03-07T02:43:06;15.43;8.80;
74419;PMS5003;62855;50.718;-2.460;2024-03-07T02:46:05;15.43;8.80;
74419;PMS5003;62855;50.718;-2.460;2024-03-07T02:49:05;15.43;8.80;
74419;PMS5003;62855;50.718;-2.460;2024-03-07T02:52:05;17.24;9.78;
74419;PMS5003;62855;50.718;-2.460;2024-03-07T02:55:05;17.24;9.78;
74419;PMS5003;62855;50.718;-2.460;2024-03-07T02:58:05;16.34;9.78;
74419;PMS5003;62855;50.718;-2.460;2024-03-07T03:01:06;14.52;9.78;
74419;PMS5003;62855;50.718;-2.460;2024-03-07T03:04:05;12.71;7.82;
74419;PMS5003;62855;50.718;-2.460;2024-03-07T03:07:05;10.89;8.80;
74419;PMS5003;62855;50.718;-2.460;2024-03-07T03:10:06;9.98;7.82;
74419;PMS5003;62855;50.718;-2.460;2024-03-07T03:13:05;8.17;6.84;
74419;PMS5003;62855;50.718;-2.460;2024-03-07T03:16:10;7.26;5.87;
74419;PMS5003;62855;50.718;-2.460;2024-03-07T03:19:07;7.26;6.84;
74419;PMS5003;62855;50.718;-2.460;2024-03-07T03:22:05;6.35;6.84;
74419;PMS5003;62855;50.718;-2.460;2024-03-07T03:25:06;6.35;6.84;
74419;PMS5003;62855;50.718;-2.460;2024-03-07T03:28:06;7.26;7.82;
74419;PMS5003;62855;50.718;-2.460;2024-03-07T03:31:05;6.35;6.84;
74419;PMS5003;62855;50.718;-2.460;2024-03-07T03:34:06;6.35;6.84;
74419;PMS5003;62855;50.718;-2.460;2024-03-07T03:37:05;6.35;6.84;
74419;PMS5003;62855;50.718;-2.460;2024-03-07T03:40:06;7.26;6.84;
74419;PMS5003;62855;50.718;-2.460;2024-03-07T03:43:05;7.26;7.82;
74419;PMS5003;62855;50.718;-2.460;2024-03-07T03:46:05;7.26;6.84;
74419;PMS5003;62855;50.718;-2.460;2024-03-07T03:49:06;7.26;6.84;
74419;PMS5003;62855;50.718;-2.460;2024-03-07T03:52:06;7.26;5.87;
74419;PMS5003;62855;50.718;-2.460;2024-03-07T03:55:08;7.26;5.87;
74419;PMS5003;62855;50.718;-2.460;2024-03-07T03:58:05;6.35;4.89;
74419;PMS5003;62855;50.718;-2.460;2024-03-07T04:01:05;6.35;4.89;
74419;PMS5003;62855;50.718;-2.460;2024-03-07T04:04:05;7.26;4.89;
74419;PMS5003;62855;50.718;-2.460;2024-03-07T04:07:06;7.26;4.89;
74419;PMS5003;62855;50.718;-2.460;2024-03-07T04:10:09;6.35;5.87;
74419;PMS5003;62855;50.718;-2.460;2024-03-07T04:13:05;6.35;5.87;
74419;PMS5003;62855;50.718;-2.460;2024-03-07T04:16:05;7.26;6.84;
74419;PMS5003;62855;50.718;-2.460;2024-03-07T04:19:05;6.35;5.87;
74419;PMS5003;62855;50.718;-2.460;2024-03-07T04:22:05;7.26;6.84;
74419;PMS5003;62855;50.718;-2.460;2024-03-07T04:25:06;9.08;7.82;
74419;PMS5003;62855;50.718;-2.460;2024-03-07T04:28:06;8.17;7.82;
74419;PMS5003;62855;50.718;-2.460;2024-03-07T04:31:05;9.08;8.80;
74419;PMS5003;62855;50.718;-2.460;2024-03-07T04:34:05;9.08;8.80;
74419;PMS5003;62855;50.718;-2.460;2024-03-07T04:37:05;9.08;8.80;
74419;PMS5003;62855;50.718;-2.460;2024-03-07T04:40:06;9.08;8.80;
74419;PMS5003;62855;50.718;-2.460;2024-03-07T04:43:06;9.98;8.80;
74419;PMS5003;62855;50.718;-2.460;2024-03-07T04:46:06;9.98;7.82;
74419;PMS5003;62855;50.718;-2.460;2024-03-07T04:49:06;9.08;7.82;
74419;PMS5003;62855;50.718;-2.460;2024-03-07T04:52:07;9.98;8.80;
74419;PMS5003;62855;50.718;-2.460;2024-03-07T04:55:06;8.17;6.84;
74419;PMS5003;62855;50.718;-2.460;2024-03-07T04:58:06;8.17;6.84;
74419;PMS5003;62855;50.718;-2.460;2024-03-07T05:01:05;7.26;6.84;
74419;PMS5003;62855;50.718;-2.460;2024-03-07T05:04:07;8.17;6.84;
74419;PMS5003;62855;50.718;-2.460;2024-03-07T05:07:05;9.08;7.82;
74419;PMS5003;62855;50.718;-2.460;2024-03-07T05:10:06;8.17;6.84;
74419;PMS5003;62855;50.718;-2.460;2024-03-07T05:13:05;9.08;7.82;
74419;PMS5003;62855;50.718;-2.460;2024-03-07T05:16:07;9.08;8.80;
74419;PMS5003;62855;50.718;-2.460;2024-03-07T05:19:06;9.08;8.80;
74419;PMS5003;62855;50.718;-2.460;2024-03-07T05:22:05;9.08;8.80;
74419;PMS5003;62855;50.718;-2.460;2024-03-07T05:25:05;8.17;7.82;
74419;PMS5003;62855;50.718;-2.460;2024-03-07T05:28:05;9.08;7.82;
74419;PMS5003;62855;50.718;-2.460;2024-03-07T05:31:05;9.98;9.78;
74419;PMS5003;62855;50.718;-2.460;2024-03-07T05:34:06;10.89;9.78;
74419;PMS5003;62855;50.718;-2.460;2024-03-07T05:37:06;9.08;8.80;
74419;PMS5003;62855;50.718;-2.460;2024-03-07T05:40:06;9.98;9.78;
74419;PMS5003;62855;50.718;-2.460;2024-03-07T05:43:05;9.08;8.80;
74419;PMS5003;62855;50.718;-2.460;2024-03-07T05:47:05;8.17;7.82;
74419;PMS5003;62855;50.718;-2.460;2024-03-07T05:50:06;8.17;8.80;
74419;PMS5003;62855;50.718;-2.460;2024-03-07T05:53:05;9.08;8.80;
74419;PMS5003;62855;50.718;-2.460;2024-03-07T05:56:05;10.89;9.78;
74419;PMS5003;62855;50.718;-2.460;2024-03-07T05:59:05;9.08;7.82;
74419;PMS5003;62855;50.718;-2.460;2024-03-07T06:02:06;10.89;9.78;
74419;PMS5003;62855;50.718;-2.460;2024-03-07T06:05:06;10.89;9.78;
74419;PMS5003;62855;50.718;-2.460;2024-03-07T06:08:05;11.80;9.78;
74419;PMS5003;62855;50.718;-2.460;2024-03-07T06:11:05;11.80;8.80;
74419;PMS5003;62855;50.718;-2.460;2024-03-07T06:14:07;11.80;9.78;
74419;PMS5003;62855;50.718;-2.460;2024-03-07T06:17:05;11.80;9.78;
74419;PMS5003;62855;50.718;-2.460;2024-03-07T06:20:06;11.80;8.80;
74419;PMS5003;62855;50.718;-2.460;2024-03-07T06:23:06;9.98;8.80;
74419;PMS5003;62855;50.718;-2.460;2024-03-07T06:29:06;9.98;7.82;
74419;PMS5003;62855;50.718;-2.460;2024-03-07T06:32:05;9.08;6.84;
74419;PMS5003;62855;50.718;-2.460;2024-03-07T06:35:06;9.08;7.82;
74419;PMS5003;62855;50.718;-2.460;2024-03-07T06:38:06;7.26;6.84;
74419;PMS5003;62855;50.718;-2.460;2024-03-07T06:41:06;9.08;7.82;
74419;PMS5003;62855;50.718;-2.460;2024-03-07T06:47:06;9.08;7.82;
74419;PMS5003;62855;50.718;-2.460;2024-03-07T06:50:08;9.98;8.80;
74419;PMS5003;62855;50.718;-2.460;2024-03-07T06:53:05;10.89;9.78;
74419;PMS5003;62855;50.718;-2.460;2024-03-07T06:56:06;11.80;10.76;
74419;PMS5003;62855;50.718;-2.460;2024-03-07T06:59:05;10.89;8.80;
74419;PMS5003;62855;50.718;-2.460;2024-03-07T07:02:05;12.71;10.76;
74419;PMS5003;62855;50.718;-2.460;2024-03-07T07:05:06;10.89;8.80;
74419;PMS5003;62855;50.718;-2.460;2024-03-07T07:08:05;11.80;9.78;
74419;PMS5003;62855;50.718;-2.460;2024-03-07T07:11:05;9.08;7.82;
74419;PMS5003;62855;50.718;-2.460;2024-03-07T07:14:06;11.80;9.78;
74419;PMS5003;62855;50.718;-2.460;2024-03-07T07:17:06;10.89;8.80;
74419;PMS5003;62855;50.718;-2.460;2024-03-07T07:20:06;12.71;9.78;
74419;PMS5003;62855;50.718;-2.460;2024-03-07T07:23:06;13.61;11.73;
74419;PMS5003;62855;50.718;-2.460;2024-03-07T07:26:05;12.71;10.76;
74419;PMS5003;62855;50.718;-2.460;2024-03-07T07:29:05;11.80;9.78;
74419;PMS5003;62855;50.718;-2.460;2024-03-07T07:32:05;11.80;9.78;
74419;PMS5003;62855;50.718;-2.460;2024-03-07T07:35:05;10.89;8.80;
74419;PMS5003;62855;50.718;-2.460;2024-03-07T07:38:05;10.89;8.80;
74419;PMS5003;62855;50.718;-2.460;2024-03-07T07:41:05;9.08;7.82;
74419;PMS5003;62855;50.718;-2.460;2024-03-07T07:44:05;8.17;7.82;
74419;PMS5003;62855;50.718;-2.460;2024-03-07T07:47:05;8.17;7.82;
74419;PMS5003;62855;50.718;-2.460;2024-03-07T07:50:06;7.26;6.84;
74419;PMS5003;62855;50.718;-2.460;2024-03-07T07:53:05;7.26;6.84;
74419;PMS5003;62855;50.718;-2.460;2024-03-07T07:56:07;7.26;6.84;
74419;PMS5003;62855;50.718;-2.460;2024-03-07T08:02:05;7.26;7.82;
74419;PMS5003;62855;50.718;-2.460;2024-03-07T08:05:05;7.26;7.82;
74419;PMS5003;62855;50.718;-2.460;2024-03-07T08:08:06;6.35;6.84;
74419;PMS5003;62855;50.718;-2.460;2024-03-07T08:11:05;6.35;6.84;
74419;PMS5003;62855;50.718;-2.460;2024-03-07T08:14:05;6.35;6.84;
74419;PMS5003;62855;50.718;-2.460;2024-03-07T08:17:05;7.26;7.82;
74419;PMS5003;62855;50.718;-2.460;2024-03-07T08:20:05;7.26;7.82;
74419;PMS5003;62855;50.718;-2.460;2024-03-07T08:23:05;7.26;7.82;
74419;PMS5003;62855;50.718;-2.460;2024-03-07T08:26:07;8.17;7.82;
74419;PMS5003;62855;50.718;-2.460;2024-03-07T08:29:06;8.17;7.82;
74419;PMS5003;62855;50.718;-2.460;2024-03-07T08:32:06;8.17;7.82;
74419;PMS5003;62855;50.718;-2.460;2024-03-07T08:35:06;7.26;6.84;
74419;PMS5003;62855;50.718;-2.460;2024-03-07T08:38:06;7.26;7.82;
74419;PMS5003;62855;50.718;-2.460;2024-03-07T08:41:06;7.26;7.82;
74419;PMS5003;62855;50.718;-2.460;2024-03-07T08:44:05;7.26;6.84;
74419;PMS5003;62855;50.718;-2.460;2024-03-07T08:47:05;7.26;6.84;
74419;PMS5003;62855;50.718;-2.460;2024-03-07T08:50:08;7.26;7.82;
74419;PMS5003;62855;50.718;-2.460;2024-03-07T08:53:06;7.26;7.82;
74419;PMS5003;62855;50.718;-2.460;2024-03-07T08:59:05;7.26;7.82;
74419;PMS5003;62855;50.718;-2.460;2024-03-07T09:02:05;7.26;7.82;
74419;PMS5003;62855;50.718;-2.460;2024-03-07T09:08:06;8.17;8.80;
74419;PMS5003;62855;50.718;-2.460;2024-03-07T09:11:06;9.08;8.80;
74419;PMS5003;62855;50.718;-2.460;2024-03-07T09:14:07;9.98;9.78;
74419;PMS5003;62855;50.718;-2.460;2024-03-07T09:17:06;9.98;9.78;
74419;PMS5003;62855;50.718;-2.460;2024-03-07T09:20:06;9.98;8.80;
74419;PMS5003;62855;50.718;-2.460;2024-03-07T09:23:05;10.89;8.80;
74419;PMS5003;62855;50.718;-2.460;2024-03-07T09:26:05;9.08;6.84;
74419;PMS5003;62855;50.718;-2.460;2024-03-07T09:29:05;9.08;7.82;
74419;PMS5003;62855;50.718;-2.460;2024-03-07T09:32:07;9.08;7.82;
74419;PMS5003;62855;50.718;-2.460;2024-03-07T09:35:05;9.08;7.82;
74419;PMS5003;62855;50.718;-2.460;2024-03-07T09:38:06;8.17;7.82;
74419;PMS5003;62855;50.718;-2.460;2024-03-07T09:41:05;7.26;6.84;
74419;PMS5003;62855;50.718;-2.460;2024-03-07T09:44:05;7.26;5.87;
74419;PMS5003;62855;50.718;-2.460;2024-03-07T09:47:05;7.26;6.84;
74419;PMS5003;62855;50.718;-2.460;2024-03-07T09:50:05;7.26;6.84;
74419;PMS5003;62855;50.718;-2.460;2024-03-07T09:53:05;6.35;6.84;
74419;PMS5003;62855;50.718;-2.460;2024-03-07T09:56:05;6.35;6.84;
74419;PMS5003;62855;50.718;-2.460;2024-03-07T09:59:05;6.35;5.87;
74419;PMS5003;62855;50.718;-2.460;2024-03-07T10:02:06;6.35;5.87;
74419;PMS5003;62855;50.718;-2.460;2024-03-07T10:05:06;5.45;5.87;
74419;PMS5003;62855;50.718;-2.460;2024-03-07T10:08:05;5.45;5.87;
74419;PMS5003;62855;50.718;-2.460;2024-03-07T10:11:05;5.45;5.87;
74419;PMS5003;62855;50.718;-2.460;2024-03-07T10:14:07;5.45;5.87;
74419;PMS5003;62855;50.718;-2.460;2024-03-07T10:17:05;5.45;5.87;
74419;PMS5003;62855;50.718;-2.460;2024-03-07T10:20:06;5.45;5.87;
74419;PMS5003;62855;50.718;-2.460;2024-03-07T10:23:05;6.35;6.84;
74419;PMS5003;62855;50.718;-2.460;2024-03-07T10:26:05;6.35;6.84;
74419;PMS5003;62855;50.718;-2.460;2024-03-07T10:29:05;7.26;6.84;
74419;PMS5003;62855;50.718;-2.460;2024-03-07T10:35:06;8.17;7.82;
74419;PMS5003;62855;50.718;-2.460;2024-03-07T10:38:05;8.17;7.82;
74419;PMS5003;62855;50.718;-2.460;2024-03-07T10:41:05;8.17;7.82;
74419;PMS5003;62855;50.718;-2.460;2024-03-07T10:44:05;9.08;8.80;
74419;PMS5003;62855;50.718;-2.460;2024-03-07T10:47:05;9.08;7.82;
74419;PMS5003;62855;50.718;-2.460;2024-03-07T10:50:07;10.89;8.80;
74419;PMS5003;62855;50.718;-2.460;2024-03-07T10:53:08;10.89;7.82;
74419;PMS5003;62855;50.718;-2.460;2024-03-07T10:56:15;10.89;8.80;
74419;PMS5003;62855;50.718;-2.460;2024-03-07T10:59:07;10.89;8.80;
74419;PMS5003;62855;50.718;-2.460;2024-03-07T11:02:11;11.80;7.82;
74419;PMS5003;62855;50.718;-2.460;2024-03-07T11:05:05;11.80;7.82;
74419;PMS5003;62855;50.718;-2.460;2024-03-07T11:08:05;12.71;8.80;
74419;PMS5003;62855;50.718;-2.460;2024-03-07T11:11:05;11.80;7.82;
74419;PMS5003;62855;50.718;-2.460;2024-03-07T11:14:05;11.80;8.80;
74419;PMS5003;62855;50.718;-2.460;2024-03-07T11:17:05;12.71;8.80;
74419;PMS5003;62855;50.718;-2.460;2024-03-07T11:26:06;10.89;8.80;
74419;PMS5003;62855;50.718;-2.460;2024-03-07T11:32:06;11.80;8.80;
74419;PMS5003;62855;50.718;-2.460;2024-03-07T11:35:07;12.71;9.78;
74419;PMS5003;62855;50.718;-2.460;2024-03-07T11:38:06;10.89;8.80;
74419;PMS5003;62855;50.718;-2.460;2024-03-07T11:41:05;9.98;8.80;
74419;PMS5003;62855;50.718;-2.460;2024-03-07T11:44:10;9.98;8.80;
74419;PMS5003;62855;50.718;-2.460;2024-03-07T11:47:06;9.08;8.80;
74419;PMS5003;62855;50.718;-2.460;2024-03-07T11:50:06;9.98;7.82;
74419;PMS5003;62855;50.718;-2.460;2024-03-07T11:53:06;9.98;8.80;
74419;PMS5003;62855;50.718;-2.460;2024-03-07T11:56:06;9.08;8.80;
74419;PMS5003;62855;50.718;-2.460;2024-03-07T11:59:05;11.80;8.80;
74419;PMS5003;62855;50.718;-2.460;2024-03-07T12:02:05;12.71;8.80;
74419;PMS5003;62855;50.718;-2.460;2024-03-07T12:08:06;11.80;7.82;
74419;PMS5003;62855;50.718;-2.460;2024-03-07T12:11:06;9.98;7.82;
74419;PMS5003;62855;50.718;-2.460;2024-03-07T12:14:06;10.89;8.80;
74419;PMS5003;62855;50.718;-2.460;2024-03-07T12:17:11;9.98;7.82;
74419;PMS5003;62855;50.718;-2.460;2024-03-07T12:20:08;9.08;7.82;
74419;PMS5003;62855;50.718;-2.460;2024-03-07T12:23:06;8.17;7.82;
74419;PMS5003;62855;50.718;-2.460;2024-03-07T12:26:06;7.26;6.84;
74419;PMS5003;62855;50.718;-2.460;2024-03-07T12:29:07;7.26;6.84;
74419;PMS5003;62855;50.718;-2.460;2024-03-07T12:32:06;7.26;6.84;
74419;PMS5003;62855;50.718;-2.460;2024-03-07T12:35:05;7.26;6.84;
74419;PMS5003;62855;50.718;-2.460;2024-03-07T12:38:05;6.35;5.87;
74419;PMS5003;62855;50.718;-2.460;2024-03-07T12:41:08;5.45;5.87;
74419;PMS5003;62855;50.718;-2.460;2024-03-07T12:44:05;5.45;4.89;
74419;PMS5003;62855;50.718;-2.460;2024-03-07T12:47:05;5.45;4.89;
74419;PMS5003;62855;50.718;-2.460;2024-03-07T12:50:06;6.35;4.89;
74419;PMS5003;62855;50.718;-2.460;2024-03-07T12:53:06;7.26;5.87;
74419;PMS5003;62855;50.718;-2.460;2024-03-07T12:56:06;7.26;5.87;
74419;PMS5003;62855;50.718;-2.460;2024-03-07T12:59:06;7.26;6.84;
74419;PMS5003;62855;50.718;-2.460;2024-03-07T13:02:05;7.26;5.87;
74419;PMS5003;62855;50.718;-2.460;2024-03-07T13:05:06;6.35;5.87;
74419;PMS5003;62855;50.718;-2.460;2024-03-07T13:08:05;8.17;5.87;
74419;PMS5003;62855;50.718;-2.460;2024-03-07T13:11:05;9.08;7.82;
74419;PMS5003;62855;50.718;-2.460;2024-03-07T13:14:05;9.08;7.82;
74419;PMS5003;62855;50.718;-2.460;2024-03-07T13:17:06;9.98;6.84;
74419;PMS5003;62855;50.718;-2.460;2024-03-07T13:20:08;10.89;7.82;
74419;PMS5003;62855;50.718;-2.460;2024-03-07T13:23:05;9.98;5.87;
74419;PMS5003;62855;50.718;-2.460;2024-03-07T13:26:06;9.98;6.84;
74419;PMS5003;62855;50.718;-2.460;2024-03-07T13:29:06;9.08;5.87;
74419;PMS5003;62855;50.718;-2.460;2024-03-07T13:32:07;9.98;5.87;
74419;PMS5003;62855;50.718;-2.460;2024-03-07T13:35:06;10.89;7.82;
74419;PMS5003;62855;50.718;-2.460;2024-03-07T13:38:05;10.89;7.82;
74419;PMS5003;62855;50.718;-2.460;2024-03-07T13:41:05;9.08;5.87;
74419;PMS5003;62855;50.718;-2.460;2024-03-07T13:44:10;9.08;5.87;
74419;PMS5003;62855;50.718;-2.460;2024-03-07T13:47:05;7.26;5.87;
74419;PMS5003;62855;50.718;-2.460;2024-03-07T13:50:06;6.35;5.87;
74419;PMS5003;62855;50.718;-2.460;2024-03-07T13:53:05;6.35;5.87;
74419;PMS5003;62855;50.718;-2.460;2024-03-07T14:02:09;5.45;4.89;
74419;PMS5003;62855;50.718;-2.460;2024-03-07T14:05:15;5.45;4.89;
74419;PMS5003;62855;50.718;-2.460;2024-03-07T14:08:19;5.45;4.89;
74419;PMS5003;62855;50.718;-2.460;2024-03-07T14:11:19;4.54;3.91;
74419;PMS5003;62855;50.718;-2.460;2024-03-07T14:14:11;4.54;4.89;
74419;PMS5003;62855;50.718;-2.460;2024-03-07T14:17:19;4.54;3.91;
74419;PMS5003;62855;50.718;-2.460;2024-03-07T14:23:09;5.45;4.89;
74419;PMS5003;62855;50.718;-2.460;2024-03-07T14:29:08;5.45;5.87;
74419;PMS5003;62855;50.718;-2.460;2024-03-07T14:32:05;6.35;6.84;
74419;PMS5003;62855;50.718;-2.460;2024-03-07T14:35:09;6.35;6.84;
74419;PMS5003;62855;50.718;-2.460;2024-03-07T14:38:06;9.08;8.80;
74419;PMS5003;62855;50.718;-2.460;2024-03-07T14:41:08;10.89;10.76;
74419;PMS5003;62855;50.718;-2.460;2024-03-07T14:44:05;11.80;8.80;
74419;PMS5003;62855;50.718;-2.460;2024-03-07T14:47:06;11.80;7.82;
74419;PMS5003;62855;50.718;-2.460;2024-03-07T14:50:06;13.61;8.80;
74419;PMS5003;62855;50.718;-2.460;2024-03-07T14:53:06;12.71;8.80;
74419;PMS5003;62855;50.718;-2.460;2024-03-07T14:56:06;11.80;7.82;
74419;PMS5003;62855;50.718;-2.460;2024-03-07T14:59:05;10.89;7.82;
74419;PMS5003;62855;50.718;-2.460;2024-03-07T15:02:05;10.89;7.82;
74419;PMS5003;62855;50.718;-2.460;2024-03-07T15:05:05;10.89;7.82;
74419;PMS5003;62855;50.718;-2.460;2024-03-07T15:08:05;9.08;7.82;
74419;PMS5003;62855;50.718;-2.460;2024-03-07T15:11:06;8.17;7.82;
74419;PMS5003;62855;50.718;-2.460;2024-03-07T15:14:06;8.17;7.82;
74419;PMS5003;62855;50.718;-2.460;2024-03-07T15:17:06;8.17;7.82;
74419;PMS5003;62855;50.718;-2.460;2024-03-07T15:20:06;6.35;5.87;
74419;PMS5003;62855;50.718;-2.460;2024-03-07T15:23:05;6.35;6.84;
74419;PMS5003;62855;50.718;-2.460;2024-03-07T15:26:06;6.35;6.84;
74419;PMS5003;62855;50.718;-2.460;2024-03-07T15:29:06;8.17;6.84;
74419;PMS5003;62855;50.718;-2.460;2024-03-07T15:32:06;7.26;5.87;
74419;PMS5003;62855;50.718;-2.460;2024-03-07T15:35:06;9.08;7.82;
74419;PMS5003;62855;50.718;-2.460;2024-03-07T15:38:05;9.08;7.82;
74419;PMS5003;62855;50.718;-2.460;2024-03-07T15:41:06;12.71;10.76;
74419;PMS5003;62855;50.718;-2.460;2024-03-07T15:44:05;16.34;12.71;
74419;PMS5003;62855;50.718;-2.460;2024-03-07T15:47:05;15.43;13.69;
74419;PMS5003;62855;50.718;-2.460;2024-03-07T15:50:06;14.52;10.76;
74419;PMS5003;62855;50.718;-2.460;2024-03-07T15:53:06;14.52;9.78;
74419;PMS5003;62855;50.718;-2.460;2024-03-07T15:56:06;14.52;10.76;
74419;PMS5003;62855;50.718;-2.460;2024-03-07T16:02:05;13.61;10.76;
74419;PMS5003;62855;50.718;-2.460;2024-03-07T16:05:05;14.52;11.73;
74419;PMS5003;62855;50.718;-2.460;2024-03-07T16:08:06;12.71;10.76;
74419;PMS5003;62855;50.718;-2.460;2024-03-07T16:11:18;12.71;10.76;
74419;PMS5003;62855;50.718;-2.460;2024-03-07T16:17:21;12.71;10.76;
74419;PMS5003;62855;50.718;-2.460;2024-03-07T16:20:06;10.89;10.76;
74419;PMS5003;62855;50.718;-2.460;2024-03-07T16:23:06;10.89;10.76;
74419;PMS5003;62855;50.718;-2.460;2024-03-07T16:26:07;9.98;9.78;
74419;PMS5003;62855;50.718;-2.460;2024-03-07T16:29:05;9.98;9.78;
74419;PMS5003;62855;50.718;-2.460;2024-03-07T16:32:06;9.08;8.80;
74419;PMS5003;62855;50.718;-2.460;2024-03-07T16:35:06;9.08;7.82;
74419;PMS5003;62855;50.718;-2.460;2024-03-07T16:39:05;8.17;7.82;
74419;PMS5003;62855;50.718;-2.460;2024-03-07T16:42:07;7.26;6.84;
74419;PMS5003;62855;50.718;-2.460;2024-03-07T16:45:06;7.26;6.84;
74419;PMS5003;62855;50.718;-2.460;2024-03-07T16:48:06;7.26;5.87;
74419;PMS5003;62855;50.718;-2.460;2024-03-07T16:51:05;7.26;6.84;
74419;PMS5003;62855;50.718;-2.460;2024-03-07T16:54:05;8.17;6.84;
74419;PMS5003;62855;50.718;-2.460;2024-03-07T16:57:05;8.17;7.82;
74419;PMS5003;62855;50.718;-2.460;2024-03-07T17:00:06;8.17;8.80;
74419;PMS5003;62855;50.718;-2.460;2024-03-07T17:03:06;8.17;8.80;
74419;PMS5003;62855;50.718;-2.460;2024-03-07T17:06:05;8.17;7.82;
74419;PMS5003;62855;50.718;-2.460;2024-03-07T17:09:05;7.26;7.82;
74419;PMS5003;62855;50.718;-2.460;2024-03-07T17:12:06;8.17;7.82;
74419;PMS5003;62855;50.718;-2.460;2024-03-07T17:15:06;8.17;7.82;
74419;PMS5003;62855;50.718;-2.460;2024-03-07T17:18:06;8.17;7.82;
74419;PMS5003;62855;50.718;-2.460;2024-03-07T17:21:05;8.17;7.82;
74419;PMS5003;62855;50.718;-2.460;2024-03-07T17:24:05;7.26;6.84;
74419;PMS5003;62855;50.718;-2.460;2024-03-07T17:27:05;5.45;4.89;
74419;PMS5003;62855;50.718;-2.460;2024-03-07T17:30:08;5.45;4.89;
74419;PMS5003;62855;50.718;-2.460;2024-03-07T17:33:05;5.45;4.89;
74419;PMS5003;62855;50.718;-2.460;2024-03-07T17:36:05;5.45;4.89;
74419;PMS5003;62855;50.718;-2.460;2024-03-07T17:39:05;5.45;3.91;
74419;PMS5003;62855;50.718;-2.460;2024-03-07T17:42:05;6.35;4.89;
74419;PMS5003;62855;50.718;-2.460;2024-03-07T17:45:06;7.26;5.87;
74419;PMS5003;62855;50.718;-2.460;2024-03-07T17:48:05;6.35;4.89;
74419;PMS5003;62855;50.718;-2.460;2024-03-07T17:51:05;6.35;3.91;
74419;PMS5003;62855;50.718;-2.460;2024-03-07T17:54:06;6.35;4.89;
74419;PMS5003;62855;50.718;-2.460;2024-03-07T17:57:06;6.35;4.89;
74419;PMS5003;62855;50.718;-2.460;2024-03-07T18:00:06;6.35;3.91;
74419;PMS5003;62855;50.718;-2.460;2024-03-07T18:03:05;5.45;3.91;
74419;PMS5003;62855;50.718;-2.460;2024-03-07T18:06:06;5.45;3.91;
74419;PMS5003;62855;50.718;-2.460;2024-03-07T18:09:05;5.45;3.91;
74419;PMS5003;62855;50.718;-2.460;2024-03-07T18:12:06;4.54;3.91;
74419;PMS5003;62855;50.718;-2.460;2024-03-07T18:15:05;4.54;3.91;
74419;PMS5003;62855;50.718;-2.460;2024-03-07T18:19:05;3.63;2.93;
74419;PMS5003;62855;50.718;-2.460;2024-03-07T18:22:06;3.63;3.91;
74419;PMS5003;62855;50.718;-2.460;2024-03-07T18:25:06;3.63;3.91;
74419;PMS5003;62855;50.718;-2.460;2024-03-07T18:28:06;4.54;4.89;
74419;PMS5003;62855;50.718;-2.460;2024-03-07T18:31:06;4.54;4.89;
74419;PMS5003;62855;50.718;-2.460;2024-03-07T18:34:05;4.54;4.89;
74419;PMS5003;62855;50.718;-2.460;2024-03-07T18:37:05;4.54;4.89;
74419;PMS5003;62855;50.718;-2.460;2024-03-07T18:40:06;4.54;4.89;
74419;PMS5003;62855;50.718;-2.460;2024-03-07T18:43:07;4.54;4.89;
74419;PMS5003;62855;50.718;-2.460;2024-03-07T18:46:06;5.45;5.87;
74419;PMS5003;62855;50.718;-2.460;2024-03-07T18:49:06;5.45;5.87;
74419;PMS5003;62855;50.718;-2.460;2024-03-07T18:52:05;6.35;5.87;
74419;PMS5003;62855;50.718;-2.460;2024-03-07T18:55:08;6.35;5.87;
74419;PMS5003;62855;50.718;-2.460;2024-03-07T18:58:05;6.35;6.84;
74419;PMS5003;62855;50.718;-2.460;2024-03-07T19:01:05;6.35;5.87;
74419;PMS5003;62855;50.718;-2.460;2024-03-07T19:04:05;8.17;6.84;
74419;PMS5003;62855;50.718;-2.460;2024-03-07T19:07:05;9.08;6.84;
74419;PMS5003;62855;50.718;-2.460;2024-03-07T19:10:06;9.08;5.87;